sensor_id;sensor_type;location;lat;lon;timestamp;temperature;humidity
12049;DHT22;6085;49.452;8.502;2023-12-20T00:03:50;5.00;99.90
12049;DHT22;6085;49.452;8.502;2023-12-20T00:07:52;5.00;99.90
12049;DHT22;6085;49.452;8.502;2023-12-20T00:11:54;5.00;99.90
12049;DHT22;6085;49.452;8.502;2023-12-20T00:15:57;5.00;99.90
12049;DHT22;6085;49.452;8.502;2023-12-20T00:19:59;5.10;99.90
12049;DHT22;6085;49.452;8.502;2023-12-20T00:24:01;5.10;99.90
12049;DHT22;6085;49.452;8.502;2023-12-20T00:28:04;5.10;99.90
12049;DHT22;6085;49.452;8.502;2023-12-20T00:32:07;5.10;99.90
12049;DHT22;6085;49.452;8.502;2023-12-20T00:36:09;5.10;99.90
12049;DHT22;6085;49.452;8.502;2023-12-20T00:40:11;5.10;99.90
12049;DHT22;6085;49.452;8.502;2023-12-20T00:44:13;5.10;99.90
12049;DHT22;6085;49.452;8.502;2023-12-20T00:48:16;5.20;99.90
12049;DHT22;6085;49.452;8.502;2023-12-20T00:52:18;5.20;99.90
12049;DHT22;6085;49.452;8.502;2023-12-20T00:56:22;5.20;99.90
12049;DHT22;6085;49.452;8.502;2023-12-20T01:00:24;5.20;99.90
12049;DHT22;6085;49.452;8.502;2023-12-20T01:04:27;5.10;99.90
12049;DHT22;6085;49.452;8.502;2023-12-20T01:08:29;5.20;99.90
12049;DHT22;6085;49.452;8.502;2023-12-20T01:12:31;5.20;99.90
12049;DHT22;6085;49.452;8.502;2023-12-20T01:16:33;5.10;99.90
12049;DHT22;6085;49.452;8.502;2023-12-20T01:20:36;5.10;99.90
12049;DHT22;6085;49.452;8.502;2023-12-20T01:24:38;5.20;99.90
12049;DHT22;6085;49.452;8.502;2023-12-20T01:28:40;5.10;99.90
12049;DHT22;6085;49.452;8.502;2023-12-20T01:32:41;5.10;99.90
12049;DHT22;6085;49.452;8.502;2023-12-20T01:36:44;5.10;99.90
12049;DHT22;6085;49.452;8.502;2023-12-20T01:40:46;5.10;99.90
12049;DHT22;6085;49.452;8.502;2023-12-20T01:44:48;5.10;99.90
12049;DHT22;6085;49.452;8.502;2023-12-20T01:48:51;5.10;99.90
12049;DHT22;6085;49.452;8.502;2023-12-20T01:52:55;5.10;99.90
12049;DHT22;6085;49.452;8.502;2023-12-20T01:56:58;5.10;99.90
12049;DHT22;6085;49.452;8.502;2023-12-20T02:01:01;5.10;99.90
12049;DHT22;6085;49.452;8.502;2023-12-20T02:05:03;5.10;99.90
12049;DHT22;6085;49.452;8.502;2023-12-20T02:09:07;5.00;99.90
12049;DHT22;6085;49.452;8.502;2023-12-20T02:13:09;5.00;99.90
12049;DHT22;6085;49.452;8.502;2023-12-20T02:17:11;5.10;99.90
12049;DHT22;6085;49.452;8.502;2023-12-20T02:21:13;5.10;99.90
12049;DHT22;6085;49.452;8.502;2023-12-20T02:25:16;5.00;99.90
12049;DHT22;6085;49.452;8.502;2023-12-20T02:29:18;5.00;99.90
12049;DHT22;6085;49.452;8.502;2023-12-20T02:33:20;5.00;99.90
12049;DHT22;6085;49.452;8.502;2023-12-20T02:37:21;5.00;99.90
12049;DHT22;6085;49.452;8.502;2023-12-20T02:41:25;5.00;99.90
12049;DHT22;6085;49.452;8.502;2023-12-20T02:45:27;5.00;99.90
12049;DHT22;6085;49.452;8.502;2023-12-20T02:49:29;5.00;99.90
12049;DHT22;6085;49.452;8.502;2023-12-20T02:53:30;5.00;99.90
12049;DHT22;6085;49.452;8.502;2023-12-20T02:57:34;4.90;99.90
12049;DHT22;6085;49.452;8.502;2023-12-20T03:01:42;4.90;99.90
12049;DHT22;6085;49.452;8.502;2023-12-20T03:05:45;4.90;99.90
12049;DHT22;6085;49.452;8.502;2023-12-20T03:09:47;4.90;99.90
12049;DHT22;6085;49.452;8.502;2023-12-20T03:13:50;4.90;99.90
12049;DHT22;6085;49.452;8.502;2023-12-20T03:17:52;4.80;99.90
12049;DHT22;6085;49.452;8.502;2023-12-20T03:21:54;4.80;99.90
12049;DHT22;6085;49.452;8.502;2023-12-20T03:25:56;4.80;99.90
12049;DHT22;6085;49.452;8.502;2023-12-20T03:29:59;4.80;99.90
12049;DHT22;6085;49.452;8.502;2023-12-20T03:34:01;4.80;99.90
12049;DHT22;6085;49.452;8.502;2023-12-20T03:38:03;4.80;99.90
12049;DHT22;6085;49.452;8.502;2023-12-20T03:42:05;4.90;99.90
12049;DHT22;6085;49.452;8.502;2023-12-20T03:46:09;4.90;99.90
12049;DHT22;6085;49.452;8.502;2023-12-20T03:50:11;4.80;99.90
12049;DHT22;6085;49.452;8.502;2023-12-20T03:54:13;4.80;99.90
12049;DHT22;6085;49.452;8.502;2023-12-20T03:58:15;4.90;99.90
12049;DHT22;6085;49.452;8.502;2023-12-20T04:02:18;4.90;99.90
12049;DHT22;6085;49.452;8.502;2023-12-20T04:06:20;4.90;99.90
12049;DHT22;6085;49.452;8.502;2023-12-20T04:10:22;4.90;99.90
12049;DHT22;6085;49.452;8.502;2023-12-20T04:14:23;4.90;99.90
12049;DHT22;6085;49.452;8.502;2023-12-20T04:18:27;4.90;99.90
12049;DHT22;6085;49.452;8.502;2023-12-20T04:22:29;4.90;99.90
12049;DHT22;6085;49.452;8.502;2023-12-20T04:26:31;4.90;99.90
12049;DHT22;6085;49.452;8.502;2023-12-20T04:30:33;4.90;99.90
12049;DHT22;6085;49.452;8.502;2023-12-20T04:34:37;5.00;99.90
12049;DHT22;6085;49.452;8.502;2023-12-20T04:38:38;5.00;99.90
12049;DHT22;6085;49.452;8.502;2023-12-20T04:42:40;5.00;99.90
12049;DHT22;6085;49.452;8.502;2023-12-20T04:46:42;5.00;99.90
12049;DHT22;6085;49.452;8.502;2023-12-20T04:50:45;5.00;99.90
12049;DHT22;6085;49.452;8.502;2023-12-20T04:54:47;5.00;99.90
12049;DHT22;6085;49.452;8.502;2023-12-20T04:58:49;5.10;99.90
12049;DHT22;6085;49.452;8.502;2023-12-20T05:02:52;5.10;99.90
12049;DHT22;6085;49.452;8.502;2023-12-20T05:06:55;5.10;99.90
12049;DHT22;6085;49.452;8.502;2023-12-20T05:10:57;5.20;99.90
12049;DHT22;6085;49.452;8.502;2023-12-20T05:14:59;5.20;99.90
12049;DHT22;6085;49.452;8.502;2023-12-20T05:19:01;5.20;99.90
12049;DHT22;6085;49.452;8.502;2023-12-20T05:23:08;5.20;99.90
12049;DHT22;6085;49.452;8.502;2023-12-20T05:27:10;5.30;99.90
12049;DHT22;6085;49.452;8.502;2023-12-20T05:31:11;5.30;99.90
12049;DHT22;6085;49.452;8.502;2023-12-20T05:35:13;5.40;99.90
12049;DHT22;6085;49.452;8.502;2023-12-20T05:39:17;5.40;99.90
12049;DHT22;6085;49.452;8.502;2023-12-20T05:43:19;5.40;99.90
12049;DHT22;6085;49.452;8.502;2023-12-20T05:47:20;5.40;99.90
12049;DHT22;6085;49.452;8.502;2023-12-20T05:51:22;5.50;99.90
12049;DHT22;6085;49.452;8.502;2023-12-20T05:55:25;5.50;99.90
12049;DHT22;6085;49.452;8.502;2023-12-20T05:59:27;5.50;99.90
12049;DHT22;6085;49.452;8.502;2023-12-20T06:03:29;5.50;99.90
12049;DHT22;6085;49.452;8.502;2023-12-20T06:07:31;5.50;99.90
12049;DHT22;6085;49.452;8.502;2023-12-20T06:11:34;5.50;99.90
12049;DHT22;6085;49.452;8.502;2023-12-20T06:15:36;5.50;99.90
12049;DHT22;6085;49.452;8.502;2023-12-20T06:19:38;5.40;99.90
12049;DHT22;6085;49.452;8.502;2023-12-20T06:23:40;5.40;99.90
12049;DHT22;6085;49.452;8.502;2023-12-20T06:27:43;5.40;99.90
12049;DHT22;6085;49.452;8.502;2023-12-20T06:31:45;5.40;99.90
12049;DHT22;6085;49.452;8.502;2023-12-20T06:35:47;5.30;99.90
12049;DHT22;6085;49.452;8.502;2023-12-20T06:39:48;5.10;99.90
12049;DHT22;6085;49.452;8.502;2023-12-20T06:43:52;5.00;99.90
12049;DHT22;6085;49.452;8.502;2023-12-20T06:47:54;4.70;99.90
12049;DHT22;6085;49.452;8.502;2023-12-20T06:51:56;4.50;99.90
12049;DHT22;6085;49.452;8.502;2023-12-20T06:55:58;4.20;99.90
12049;DHT22;6085;49.452;8.502;2023-12-20T07:00:01;4.00;99.90
12049;DHT22;6085;49.452;8.502;2023-12-20T07:04:03;3.80;99.90
12049;DHT22;6085;49.452;8.502;2023-12-20T07:08:06;3.80;99.90
12049;DHT22;6085;49.452;8.502;2023-12-20T07:12:08;3.80;99.90
12049;DHT22;6085;49.452;8.502;2023-12-20T07:16:13;3.70;99.90
12049;DHT22;6085;49.452;8.502;2023-12-20T07:20:15;3.80;99.90
12049;DHT22;6085;49.452;8.502;2023-12-20T07:24:17;4.00;99.90
12049;DHT22;6085;49.452;8.502;2023-12-20T07:28:19;4.00;99.90
12049;DHT22;6085;49.452;8.502;2023-12-20T07:32:22;4.00;99.90
12049;DHT22;6085;49.452;8.502;2023-12-20T07:36:24;4.00;99.90
12049;DHT22;6085;49.452;8.502;2023-12-20T07:40:26;4.10;99.90
12049;DHT22;6085;49.452;8.502;2023-12-20T07:44:28;4.00;99.90
12049;DHT22;6085;49.452;8.502;2023-12-20T07:48:31;4.00;99.90
12049;DHT22;6085;49.452;8.502;2023-12-20T07:52:33;3.90;99.90
12049;DHT22;6085;49.452;8.502;2023-12-20T07:56:34;4.00;99.90
12049;DHT22;6085;49.452;8.502;2023-12-20T08:00:36;4.00;99.90
12049;DHT22;6085;49.452;8.502;2023-12-20T08:04:40;4.00;99.90
12049;DHT22;6085;49.452;8.502;2023-12-20T08:08:41;4.10;99.90
12049;DHT22;6085;49.452;8.502;2023-12-20T08:12:43;4.20;99.90
12049;DHT22;6085;49.452;8.502;2023-12-20T08:16:45;4.30;99.90
12049;DHT22;6085;49.452;8.502;2023-12-20T08:20:48;4.40;99.90
12049;DHT22;6085;49.452;8.502;2023-12-20T08:24:50;4.60;99.90
12049;DHT22;6085;49.452;8.502;2023-12-20T08:28:52;4.70;99.90
12049;DHT22;6085;49.452;8.502;2023-12-20T08:32:54;4.60;99.90
12049;DHT22;6085;49.452;8.502;2023-12-20T08:36:57;4.60;99.90
12049;DHT22;6085;49.452;8.502;2023-12-20T08:40:59;4.60;99.90
12049;DHT22;6085;49.452;8.502;2023-12-20T08:45:02;4.70;99.90
12049;DHT22;6085;49.452;8.502;2023-12-20T08:49:04;5.50;99.90
12049;DHT22;6085;49.452;8.502;2023-12-20T08:53:08;6.20;99.90
12049;DHT22;6085;49.452;8.502;2023-12-20T08:57:09;6.30;99.90
12049;DHT22;6085;49.452;8.502;2023-12-20T09:01:11;7.30;99.90
12049;DHT22;6085;49.452;8.502;2023-12-20T09:05:13;7.50;99.90
12049;DHT22;6085;49.452;8.502;2023-12-20T09:09:16;7.30;99.90
12049;DHT22;6085;49.452;8.502;2023-12-20T09:13:19;7.00;99.90
12049;DHT22;6085;49.452;8.502;2023-12-20T09:17:21;6.90;99.90
12049;DHT22;6085;49.452;8.502;2023-12-20T09:21:23;7.00;99.90
12049;DHT22;6085;49.452;8.502;2023-12-20T09:25:27;7.30;99.90
12049;DHT22;6085;49.452;8.502;2023-12-20T09:29:30;7.10;99.90
12049;DHT22;6085;49.452;8.502;2023-12-20T09:33:32;6.90;99.90
12049;DHT22;6085;49.452;8.502;2023-12-20T09:37:34;6.80;99.90
12049;DHT22;6085;49.452;8.502;2023-12-20T09:41:42;6.70;99.90
12049;DHT22;6085;49.452;8.502;2023-12-20T09:45:46;6.90;99.90
12049;DHT22;6085;49.452;8.502;2023-12-20T09:49:49;7.30;99.90
12049;DHT22;6085;49.452;8.502;2023-12-20T09:53:54;7.30;99.90
12049;DHT22;6085;49.452;8.502;2023-12-20T09:57:59;7.40;99.90
12049;DHT22;6085;49.452;8.502;2023-12-20T10:02:01;7.30;99.90
12049;DHT22;6085;49.452;8.502;2023-12-20T10:06:07;7.70;99.90
12049;DHT22;6085;49.452;8.502;2023-12-20T10:10:10;8.00;99.90
12049;DHT22;6085;49.452;8.502;2023-12-20T10:14:16;8.20;99.90
12049;DHT22;6085;49.452;8.502;2023-12-20T10:18:20;8.30;99.90
12049;DHT22;6085;49.452;8.502;2023-12-20T10:22:22;8.50;99.90
12049;DHT22;6085;49.452;8.502;2023-12-20T10:26:25;8.40;99.90
12049;DHT22;6085;49.452;8.502;2023-12-20T10:30:28;8.20;99.90
12049;DHT22;6085;49.452;8.502;2023-12-20T10:34:32;8.00;99.90
12049;DHT22;6085;49.452;8.502;2023-12-20T10:38:35;7.80;99.90
12049;DHT22;6085;49.452;8.502;2023-12-20T10:42:37;7.70;99.90
12049;DHT22;6085;49.452;8.502;2023-12-20T10:46:43;7.50;99.90
12049;DHT22;6085;49.452;8.502;2023-12-20T10:50:51;7.30;99.90
12049;DHT22;6085;49.452;8.502;2023-12-20T10:54:53;7.30;99.90
12049;DHT22;6085;49.452;8.502;2023-12-20T10:58:56;7.30;99.90
12049;DHT22;6085;49.452;8.502;2023-12-20T11:03:01;7.50;99.90
12049;DHT22;6085;49.452;8.502;2023-12-20T11:07:13;7.60;99.90
12049;DHT22;6085;49.452;8.502;2023-12-20T11:11:22;7.50;99.90
12049;DHT22;6085;49.452;8.502;2023-12-20T11:15:27;7.40;99.90
12049;DHT22;6085;49.452;8.502;2023-12-20T11:19:31;7.30;99.90
12049;DHT22;6085;49.452;8.502;2023-12-20T11:23:33;7.20;99.90
12049;DHT22;6085;49.452;8.502;2023-12-20T11:27:35;7.20;99.90
12049;DHT22;6085;49.452;8.502;2023-12-20T11:31:40;7.30;99.90
12049;DHT22;6085;49.452;8.502;2023-12-20T11:35:45;7.20;99.90
12049;DHT22;6085;49.452;8.502;2023-12-20T11:39:54;7.20;99.90
12049;DHT22;6085;49.452;8.502;2023-12-20T11:43:56;7.10;99.90
12049;DHT22;6085;49.452;8.502;2023-12-20T11:47:58;7.10;99.90
12049;DHT22;6085;49.452;8.502;2023-12-20T11:52:02;7.00;99.90
12049;DHT22;6085;49.452;8.502;2023-12-20T11:56:06;7.00;99.90
12049;DHT22;6085;49.452;8.502;2023-12-20T12:00:08;7.00;99.90
12049;DHT22;6085;49.452;8.502;2023-12-20T12:04:10;7.00;99.90
12049;DHT22;6085;49.452;8.502;2023-12-20T12:08:14;7.00;99.90
12049;DHT22;6085;49.452;8.502;2023-12-20T12:12:16;6.90;99.90
12049;DHT22;6085;49.452;8.502;2023-12-20T12:16:19;6.90;99.90
12049;DHT22;6085;49.452;8.502;2023-12-20T12:20:21;6.90;99.90
12049;DHT22;6085;49.452;8.502;2023-12-20T12:24:24;6.80;99.90
12049;DHT22;6085;49.452;8.502;2023-12-20T12:28:26;6.80;99.90
12049;DHT22;6085;49.452;8.502;2023-12-20T12:32:29;6.80;99.90
12049;DHT22;6085;49.452;8.502;2023-12-20T12:36:32;6.80;99.90
12049;DHT22;6085;49.452;8.502;2023-12-20T12:40:38;6.80;99.90
12049;DHT22;6085;49.452;8.502;2023-12-20T12:44:41;6.80;99.90
12049;DHT22;6085;49.452;8.502;2023-12-20T12:48:43;6.80;99.90
12049;DHT22;6085;49.452;8.502;2023-12-20T12:52:45;6.80;99.90
12049;DHT22;6085;49.452;8.502;2023-12-20T12:56:48;6.80;99.90
12049;DHT22;6085;49.452;8.502;2023-12-20T13:00:51;6.80;99.90
12049;DHT22;6085;49.452;8.502;2023-12-20T13:04:53;6.80;99.90
12049;DHT22;6085;49.452;8.502;2023-12-20T13:08:54;6.70;99.90
12049;DHT22;6085;49.452;8.502;2023-12-20T13:12:58;6.70;99.90
12049;DHT22;6085;49.452;8.502;2023-12-20T13:16:59;6.70;99.90
12049;DHT22;6085;49.452;8.502;2023-12-20T13:21:01;6.70;99.90
12049;DHT22;6085;49.452;8.502;2023-12-20T13:25:04;6.70;99.90
12049;DHT22;6085;49.452;8.502;2023-12-20T13:29:08;6.80;99.90
12049;DHT22;6085;49.452;8.502;2023-12-20T13:33:11;6.90;99.90
12049;DHT22;6085;49.452;8.502;2023-12-20T13:37:13;7.00;99.90
12049;DHT22;6085;49.452;8.502;2023-12-20T13:41:15;7.10;99.90
12049;DHT22;6085;49.452;8.502;2023-12-20T13:45:18;7.10;99.90
12049;DHT22;6085;49.452;8.502;2023-12-20T13:49:19;7.20;99.90
12049;DHT22;6085;49.452;8.502;2023-12-20T13:53:21;7.20;99.90
12049;DHT22;6085;49.452;8.502;2023-12-20T13:57:23;7.20;99.90
12049;DHT22;6085;49.452;8.502;2023-12-20T14:01:26;7.20;99.90
12049;DHT22;6085;49.452;8.502;2023-12-20T14:05:28;7.20;99.90
12049;DHT22;6085;49.452;8.502;2023-12-20T14:09:30;7.10;99.90
12049;DHT22;6085;49.452;8.502;2023-12-20T14:13:32;7.20;99.90
12049;DHT22;6085;49.452;8.502;2023-12-20T14:17:35;7.20;99.90
12049;DHT22;6085;49.452;8.502;2023-12-20T14:21:37;7.10;99.90
12049;DHT22;6085;49.452;8.502;2023-12-20T14:25:39;7.00;99.90
12049;DHT22;6085;49.452;8.502;2023-12-20T14:29:40;7.10;99.90
12049;DHT22;6085;49.452;8.502;2023-12-20T14:33:44;7.50;99.90
12049;DHT22;6085;49.452;8.502;2023-12-20T14:37:46;7.50;99.90
12049;DHT22;6085;49.452;8.502;2023-12-20T14:41:48;7.30;99.90
12049;DHT22;6085;49.452;8.502;2023-12-20T14:45:50;7.10;99.90
12049;DHT22;6085;49.452;8.502;2023-12-20T14:49:53;7.00;99.90
12049;DHT22;6085;49.452;8.502;2023-12-20T14:53:55;6.80;99.90
12049;DHT22;6085;49.452;8.502;2023-12-20T14:57:58;6.70;99.90
12049;DHT22;6085;49.452;8.502;2023-12-20T15:02:00;6.70;99.90
12049;DHT22;6085;49.452;8.502;2023-12-20T15:06:06;6.70;99.90
12049;DHT22;6085;49.452;8.502;2023-12-20T15:10:12;6.70;99.90
12049;DHT22;6085;49.452;8.502;2023-12-20T15:14:14;6.70;99.90
12049;DHT22;6085;49.452;8.502;2023-12-20T15:18:20;6.60;99.90
12049;DHT22;6085;49.452;8.502;2023-12-20T15:22:23;6.60;99.90
12049;DHT22;6085;49.452;8.502;2023-12-20T15:26:26;6.60;99.90
12049;DHT22;6085;49.452;8.502;2023-12-20T15:30:29;6.50;99.90
12049;DHT22;6085;49.452;8.502;2023-12-20T15:34:31;6.50;99.90
12049;DHT22;6085;49.452;8.502;2023-12-20T15:38:34;6.50;99.90
12049;DHT22;6085;49.452;8.502;2023-12-20T15:42:36;6.40;99.90
12049;DHT22;6085;49.452;8.502;2023-12-20T15:46:38;6.40;99.90
12049;DHT22;6085;49.452;8.502;2023-12-20T15:50:40;6.30;99.90
12049;DHT22;6085;49.452;8.502;2023-12-20T15:54:43;6.20;99.90
12049;DHT22;6085;49.452;8.502;2023-12-20T15:58:46;6.30;99.90
12049;DHT22;6085;49.452;8.502;2023-12-20T16:02:49;6.20;99.90
12049;DHT22;6085;49.452;8.502;2023-12-20T16:06:51;6.30;99.90
12049;DHT22;6085;49.452;8.502;2023-12-20T16:10:54;6.30;99.90
12049;DHT22;6085;49.452;8.502;2023-12-20T16:14:56;6.30;99.90
12049;DHT22;6085;49.452;8.502;2023-12-20T16:18:58;6.30;99.90
12049;DHT22;6085;49.452;8.502;2023-12-20T16:22:59;6.30;99.90
12049;DHT22;6085;49.452;8.502;2023-12-20T16:27:03;6.30;99.90
12049;DHT22;6085;49.452;8.502;2023-12-20T16:31:05;6.30;99.90
12049;DHT22;6085;49.452;8.502;2023-12-20T16:35:07;6.40;99.90
12049;DHT22;6085;49.452;8.502;2023-12-20T16:39:09;6.40;99.90
12049;DHT22;6085;49.452;8.502;2023-12-20T16:43:12;6.40;99.90
12049;DHT22;6085;49.452;8.502;2023-12-20T16:47:14;6.30;99.90
12049;DHT22;6085;49.452;8.502;2023-12-20T16:51:16;6.40;99.90
12049;DHT22;6085;49.452;8.502;2023-12-20T16:55:18;6.40;99.90
12049;DHT22;6085;49.452;8.502;2023-12-20T16:59:21;6.40;99.90
12049;DHT22;6085;49.452;8.502;2023-12-20T17:03:23;6.40;99.90
12049;DHT22;6085;49.452;8.502;2023-12-20T17:07:26;6.40;99.90
12049;DHT22;6085;49.452;8.502;2023-12-20T17:11:29;6.40;99.90
12049;DHT22;6085;49.452;8.502;2023-12-20T17:15:32;6.40;99.90
12049;DHT22;6085;49.452;8.502;2023-12-20T17:19:34;6.40;99.90
12049;DHT22;6085;49.452;8.502;2023-12-20T17:23:36;6.40;99.90
12049;DHT22;6085;49.452;8.502;2023-12-20T17:27:39;6.40;99.90
12049;DHT22;6085;49.452;8.502;2023-12-20T17:31:43;6.40;99.90
12049;DHT22;6085;49.452;8.502;2023-12-20T17:35:45;6.40;99.90
12049;DHT22;6085;49.452;8.502;2023-12-20T17:39:47;6.40;99.90
12049;DHT22;6085;49.452;8.502;2023-12-20T17:43:49;6.40;99.90
12049;DHT22;6085;49.452;8.502;2023-12-20T17:47:52;6.40;99.90
12049;DHT22;6085;49.452;8.502;2023-12-20T17:51:54;6.40;99.90
12049;DHT22;6085;49.452;8.502;2023-12-20T17:55:56;6.50;99.90
12049;DHT22;6085;49.452;8.502;2023-12-20T18:00:11;6.50;99.90
12049;DHT22;6085;49.452;8.502;2023-12-20T18:04:15;6.50;99.90
12049;DHT22;6085;49.452;8.502;2023-12-20T18:08:20;6.50;99.90
12049;DHT22;6085;49.452;8.502;2023-12-20T18:12:22;6.50;99.90
12049;DHT22;6085;49.452;8.502;2023-12-20T18:16:24;6.50;99.90
12049;DHT22;6085;49.452;8.502;2023-12-20T18:20:27;6.50;99.90
12049;DHT22;6085;49.452;8.502;2023-12-20T18:24:29;6.50;99.90
12049;DHT22;6085;49.452;8.502;2023-12-20T18:28:31;6.50;99.90
12049;DHT22;6085;49.452;8.502;2023-12-20T18:32:33;6.60;99.90
12049;DHT22;6085;49.452;8.502;2023-12-20T18:36:36;6.60;99.90
12049;DHT22;6085;49.452;8.502;2023-12-20T18:40:38;6.60;99.90
12049;DHT22;6085;49.452;8.502;2023-12-20T18:44:47;6.60;99.90
12049;DHT22;6085;49.452;8.502;2023-12-20T18:48:49;6.60;99.90
12049;DHT22;6085;49.452;8.502;2023-12-20T18:52:52;6.60;99.90
12049;DHT22;6085;49.452;8.502;2023-12-20T18:56:54;6.60;99.90
12049;DHT22;6085;49.452;8.502;2023-12-20T19:00:56;6.60;99.90
12049;DHT22;6085;49.452;8.502;2023-12-20T19:04:58;6.60;99.90
12049;DHT22;6085;49.452;8.502;2023-12-20T19:09:01;6.60;99.90
12049;DHT22;6085;49.452;8.502;2023-12-20T19:13:04;6.70;99.90
12049;DHT22;6085;49.452;8.502;2023-12-20T19:17:06;6.70;99.90
12049;DHT22;6085;49.452;8.502;2023-12-20T19:21:08;6.70;99.90
12049;DHT22;6085;49.452;8.502;2023-12-20T19:25:11;6.80;99.90
12049;DHT22;6085;49.452;8.502;2023-12-20T19:29:13;6.80;99.90
12049;DHT22;6085;49.452;8.502;2023-12-20T19:33:15;6.80;99.90
12049;DHT22;6085;49.452;8.502;2023-12-20T19:37:17;6.80;99.90
12049;DHT22;6085;49.452;8.502;2023-12-20T19:41:21;6.80;99.90
12049;DHT22;6085;49.452;8.502;2023-12-20T19:45:23;6.80;99.90
12049;DHT22;6085;49.452;8.502;2023-12-20T19:49:25;6.80;99.90
12049;DHT22;6085;49.452;8.502;2023-12-20T19:53:27;6.80;99.90
12049;DHT22;6085;49.452;8.502;2023-12-20T19:57:30;6.80;99.90
12049;DHT22;6085;49.452;8.502;2023-12-20T20:01:32;6.70;99.90
12049;DHT22;6085;49.452;8.502;2023-12-20T20:05:37;6.70;99.90
12049;DHT22;6085;49.452;8.502;2023-12-20T20:09:39;6.70;99.90
12049;DHT22;6085;49.452;8.502;2023-12-20T20:13:42;6.60;99.90
12049;DHT22;6085;49.452;8.502;2023-12-20T20:17:44;6.60;99.90
12049;DHT22;6085;49.452;8.502;2023-12-20T20:21:46;6.60;99.90
12049;DHT22;6085;49.452;8.502;2023-12-20T20:25:48;6.50;99.90
12049;DHT22;6085;49.452;8.502;2023-12-20T20:29:51;6.50;99.90
12049;DHT22;6085;49.452;8.502;2023-12-20T20:33:53;6.50;99.90
12049;DHT22;6085;49.452;8.502;2023-12-20T20:37:55;6.50;99.90
12049;DHT22;6085;49.452;8.502;2023-12-20T20:41:57;6.40;99.90
12049;DHT22;6085;49.452;8.502;2023-12-20T20:46:00;6.40;99.90
12049;DHT22;6085;49.452;8.502;2023-12-20T20:50:03;6.30;99.90
12049;DHT22;6085;49.452;8.502;2023-12-20T20:54:04;6.30;99.90
12049;DHT22;6085;49.452;8.502;2023-12-20T20:58:06;6.30;99.90
12049;DHT22;6085;49.452;8.502;2023-12-20T21:02:10;6.30;99.90
12049;DHT22;6085;49.452;8.502;2023-12-20T21:06:12;6.20;99.90
12049;DHT22;6085;49.452;8.502;2023-12-20T21:10:13;6.20;99.90
12049;DHT22;6085;49.452;8.502;2023-12-20T21:14:15;6.10;99.90
12049;DHT22;6085;49.452;8.502;2023-12-20T21:18:19;6.10;99.90
12049;DHT22;6085;49.452;8.502;2023-12-20T21:22:20;6.10;99.90
12049;DHT22;6085;49.452;8.502;2023-12-20T21:26:22;6.00;99.90
12049;DHT22;6085;49.452;8.502;2023-12-20T21:30:24;6.00;99.90
12049;DHT22;6085;49.452;8.502;2023-12-20T21:34:28;6.00;99.90
12049;DHT22;6085;49.452;8.502;2023-12-20T21:38:29;6.00;99.90
12049;DHT22;6085;49.452;8.502;2023-12-20T21:42:31;6.00;99.90
12049;DHT22;6085;49.452;8.502;2023-12-20T21:46:33;6.00;99.90
12049;DHT22;6085;49.452;8.502;2023-12-20T21:50:36;6.00;99.90
12049;DHT22;6085;49.452;8.502;2023-12-20T21:54:39;6.00;99.90
12049;DHT22;6085;49.452;8.502;2023-12-20T21:58:41;6.00;99.90
12049;DHT22;6085;49.452;8.502;2023-12-20T22:02:43;6.00;99.90
12049;DHT22;6085;49.452;8.502;2023-12-20T22:06:46;6.00;99.90
12049;DHT22;6085;49.452;8.502;2023-12-20T22:10:48;6.00;99.90
12049;DHT22;6085;49.452;8.502;2023-12-20T22:14:50;6.00;99.90
12049;DHT22;6085;49.452;8.502;2023-12-20T22:18:52;6.00;99.90
12049;DHT22;6085;49.452;8.502;2023-12-20T22:22:56;6.00;99.90
12049;DHT22;6085;49.452;8.502;2023-12-20T22:26:58;5.90;99.90
12049;DHT22;6085;49.452;8.502;2023-12-20T22:31:01;6.00;99.90
12049;DHT22;6085;49.452;8.502;2023-12-20T22:35:03;6.00;99.90
12049;DHT22;6085;49.452;8.502;2023-12-20T22:39:08;5.90;99.90
12049;DHT22;6085;49.452;8.502;2023-12-20T22:43:12;5.90;99.90
12049;DHT22;6085;49.452;8.502;2023-12-20T22:47:14;5.90;99.90
12049;DHT22;6085;49.452;8.502;2023-12-20T22:51:16;5.90;99.90
12049;DHT22;6085;49.452;8.502;2023-12-20T22:55:19;5.80;99.90
12049;DHT22;6085;49.452;8.502;2023-12-20T22:59:21;5.80;99.90
12049;DHT22;6085;49.452;8.502;2023-12-20T23:03:23;5.80;99.90
12049;DHT22;6085;49.452;8.502;2023-12-20T23:07:26;5.80;99.90
12049;DHT22;6085;49.452;8.502;2023-12-20T23:11:29;5.80;99.90
12049;DHT22;6085;49.452;8.502;2023-12-20T23:15:31;5.80;99.90
12049;DHT22;6085;49.452;8.502;2023-12-20T23:19:33;5.80;99.90
12049;DHT22;6085;49.452;8.502;2023-12-20T23:23:35;5.80;99.90
12049;DHT22;6085;49.452;8.502;2023-12-20T23:27:38;5.80;99.90
12049;DHT22;6085;49.452;8.502;2023-12-20T23:31:40;5.90;99.90
12049;DHT22;6085;49.452;8.502;2023-12-20T23:35:41;5.90;99.90
12049;DHT22;6085;49.452;8.502;2023-12-20T23:39:43;5.90;99.90
12049;DHT22;6085;49.452;8.502;2023-12-20T23:43:48;5.90;99.90
12049;DHT22;6085;49.452;8.502;2023-12-20T23:47:50;5.90;99.90
12049;DHT22;6085;49.452;8.502;2023-12-20T23:51:52;5.90;99.90
12049;DHT22;6085;49.452;8.502;2023-12-20T23:55:54;5.90;99.90
12049;DHT22;6085;49.452;8.502;2023-12-20T23:59:57;5.90;99.90
